sensor_id;sensor_type;location;lat;lon;timestamp;pressure;altitude;pressure_sealevel;temperature;humidity
7760;BME280;3924;48.830;9.262;2023-09-30T00:00:24;99402.19;;;18.16;71.25
7760;BME280;3924;48.830;9.262;2023-09-30T00:02:51;99410.56;;;18.11;71.48
7760;BME280;3924;48.830;9.262;2023-09-30T00:05:18;99415.09;;;18.07;71.66
7760;BME280;3924;48.830;9.262;2023-09-30T00:07:48;99401.06;;;18.09;71.69
7760;BME280;3924;48.830;9.262;2023-09-30T00:10:16;99410.56;;;18.11;71.82
7760;BME280;3924;48.830;9.262;2023-09-30T00:12:42;99408.34;;;18.13;71.75
7760;BME280;3924;48.830;9.262;2023-09-30T00:15:10;99403.47;;;18.10;71.62
7760;BME280;3924;48.830;9.262;2023-09-30T00:17:36;99406.53;;;18.09;71.87
7760;BME280;3924;48.830;9.262;2023-09-30T00:20:04;99408.47;;;18.08;71.96
7760;BME280;3924;48.830;9.262;2023-09-30T00:22:31;99404.75;;;18.04;72.04
7760;BME280;3924;48.830;9.262;2023-09-30T00:24:58;99408.47;;;17.99;72.11
7760;BME280;3924;48.830;9.262;2023-09-30T00:27:24;99402.81;;;17.96;72.25
7760;BME280;3924;48.830;9.262;2023-09-30T00:29:51;99403.47;;;17.93;72.54
7760;BME280;3924;48.830;9.262;2023-09-30T00:32:18;99404.28;;;17.93;72.52
7760;BME280;3924;48.830;9.262;2023-09-30T00:34:45;99408.44;;;17.91;72.21
7760;BME280;3924;48.830;9.262;2023-09-30T00:37:12;99411.84;;;17.88;72.72
7760;BME280;3924;48.830;9.262;2023-09-30T00:39:40;99408.44;;;17.82;72.78
7760;BME280;3924;48.830;9.262;2023-09-30T00:42:06;99413.25;;;17.76;73.08
7760;BME280;3924;48.830;9.262;2023-09-30T00:44:35;99409.22;;;17.74;73.06
7760;BME280;3924;48.830;9.262;2023-09-30T00:47:02;99415.03;;;17.72;73.23
7760;BME280;3924;48.830;9.262;2023-09-30T00:49:30;99403.03;;;17.68;73.27
7760;BME280;3924;48.830;9.262;2023-09-30T00:51:57;99407.88;;;17.63;73.45
7760;BME280;3924;48.830;9.262;2023-09-30T00:54:26;99408.50;;;17.60;73.63
7760;BME280;3924;48.830;9.262;2023-09-30T00:56:54;99411.72;;;17.53;73.85
7760;BME280;3924;48.830;9.262;2023-09-30T00:59:26;99406.88;;;17.50;73.95
7760;BME280;3924;48.830;9.262;2023-09-30T01:01:54;99402.19;;;17.50;74.06
7760;BME280;3924;48.830;9.262;2023-09-30T01:04:21;99410.38;;;17.42;74.29
7760;BME280;3924;48.830;9.262;2023-09-30T01:06:48;99406.16;;;17.36;74.43
7760;BME280;3924;48.830;9.262;2023-09-30T01:09:15;99406.81;;;17.33;74.51
7760;BME280;3924;48.830;9.262;2023-09-30T01:11:42;99413.53;;;17.27;74.60
7760;BME280;3924;48.830;9.262;2023-09-30T01:14:30;99413.38;;;17.23;74.75
7760;BME280;3924;48.830;9.262;2023-09-30T01:16:57;99404.16;;;17.19;74.90
7760;BME280;3924;48.830;9.262;2023-09-30T01:19:27;99416.56;;;17.16;74.95
7760;BME280;3924;48.830;9.262;2023-09-30T01:21:55;99419.91;;;17.13;75.20
7760;BME280;3924;48.830;9.262;2023-09-30T01:24:26;99414.56;;;17.08;75.22
7760;BME280;3924;48.830;9.262;2023-09-30T01:26:56;99422.78;;;17.08;75.17
7760;BME280;3924;48.830;9.262;2023-09-30T01:29:24;99406.00;;;17.01;75.55
7760;BME280;3924;48.830;9.262;2023-09-30T01:31:55;99413.13;;;17.02;75.34
7760;BME280;3924;48.830;9.262;2023-09-30T01:34:22;99415.84;;;17.02;75.58
7760;BME280;3924;48.830;9.262;2023-09-30T01:36:50;99416.34;;;17.04;75.65
7760;BME280;3924;48.830;9.262;2023-09-30T01:39:23;99417.47;;;17.03;75.44
7760;BME280;3924;48.830;9.262;2023-09-30T01:41:50;99411.66;;;17.05;75.62
7760;BME280;3924;48.830;9.262;2023-09-30T01:44:17;99413.91;;;17.03;75.72
7760;BME280;3924;48.830;9.262;2023-09-30T01:46:44;99418.59;;;17.02;75.73
7760;BME280;3924;48.830;9.262;2023-09-30T01:49:11;99428.09;;;17.05;75.82
7760;BME280;3924;48.830;9.262;2023-09-30T01:51:41;99428.22;;;17.00;75.73
7760;BME280;3924;48.830;9.262;2023-09-30T01:54:10;99418.03;;;16.91;75.91
7760;BME280;3924;48.830;9.262;2023-09-30T01:56:37;99415.63;;;16.90;76.02
7760;BME280;3924;48.830;9.262;2023-09-30T01:59:04;99417.53;;;16.89;75.90
7760;BME280;3924;48.830;9.262;2023-09-30T02:01:30;99418.97;;;16.87;76.07
7760;BME280;3924;48.830;9.262;2023-09-30T02:03:57;99422.34;;;16.84;76.16
7760;BME280;3924;48.830;9.262;2023-09-30T02:06:25;99413.13;;;16.80;76.15
7760;BME280;3924;48.830;9.262;2023-09-30T02:08:51;99400.19;;;16.72;76.14
7760;BME280;3924;48.830;9.262;2023-09-30T02:11:21;99406.78;;;16.71;76.56
7760;BME280;3924;48.830;9.262;2023-09-30T02:13:50;99410.66;;;16.70;76.37
7760;BME280;3924;48.830;9.262;2023-09-30T02:16:16;99414.47;;;16.68;76.69
7760;BME280;3924;48.830;9.262;2023-09-30T02:18:43;99414.47;;;16.68;76.57
7760;BME280;3924;48.830;9.262;2023-09-30T02:21:11;99426.13;;;16.74;76.51
7760;BME280;3924;48.830;9.262;2023-09-30T02:23:38;99422.56;;;16.74;76.62
7760;BME280;3924;48.830;9.262;2023-09-30T02:26:05;99431.09;;;16.72;76.64
7760;BME280;3924;48.830;9.262;2023-09-30T02:28:32;99431.34;;;16.62;76.64
7760;BME280;3924;48.830;9.262;2023-09-30T02:31:00;99434.69;;;16.59;76.76
7760;BME280;3924;48.830;9.262;2023-09-30T02:33:27;99438.88;;;16.56;76.96
7760;BME280;3924;48.830;9.262;2023-09-30T02:35:54;99435.63;;;16.54;77.10
7760;BME280;3924;48.830;9.262;2023-09-30T02:38:22;99437.25;;;16.55;77.08
7760;BME280;3924;48.830;9.262;2023-09-30T02:40:50;99441.28;;;16.58;77.23
7760;BME280;3924;48.830;9.262;2023-09-30T02:43:18;99445.94;;;16.57;77.23
7760;BME280;3924;48.830;9.262;2023-09-30T02:45:45;99439.47;;;16.53;77.26
7760;BME280;3924;48.830;9.262;2023-09-30T02:48:15;99442.63;;;16.47;77.11
7760;BME280;3924;48.830;9.262;2023-09-30T02:50:43;99448.31;;;16.50;77.14
7760;BME280;3924;48.830;9.262;2023-09-30T02:53:13;99446.59;;;16.54;77.19
7760;BME280;3924;48.830;9.262;2023-09-30T02:55:41;99447.38;;;16.55;77.31
7760;BME280;3924;48.830;9.262;2023-09-30T02:58:08;99437.75;;;16.57;77.41
7760;BME280;3924;48.830;9.262;2023-09-30T03:00:35;99444.50;;;16.60;77.56
7760;BME280;3924;48.830;9.262;2023-09-30T03:03:02;99432.25;;;16.57;77.41
7760;BME280;3924;48.830;9.262;2023-09-30T03:05:30;99439.84;;;16.60;77.38
7760;BME280;3924;48.830;9.262;2023-09-30T03:07:59;99438.22;;;16.59;77.50
7760;BME280;3924;48.830;9.262;2023-09-30T03:10:27;99449.31;;;16.54;77.67
7760;BME280;3924;48.830;9.262;2023-09-30T03:12:54;99454.28;;;16.52;77.36
7760;BME280;3924;48.830;9.262;2023-09-30T03:15:22;99453.28;;;16.48;77.48
7760;BME280;3924;48.830;9.262;2023-09-30T03:17:51;99460.28;;;16.54;77.46
7760;BME280;3924;48.830;9.262;2023-09-30T03:20:19;99473.81;;;16.59;77.40
7760;BME280;3924;48.830;9.262;2023-09-30T03:22:47;99476.75;;;16.63;77.82
7760;BME280;3924;48.830;9.262;2023-09-30T03:25:16;99473.72;;;16.64;77.61
7760;BME280;3924;48.830;9.262;2023-09-30T03:27:45;99476.94;;;16.66;77.52
7760;BME280;3924;48.830;9.262;2023-09-30T03:30:16;99468.16;;;16.70;77.42
7760;BME280;3924;48.830;9.262;2023-09-30T03:32:44;99476.75;;;16.77;77.47
7760;BME280;3924;48.830;9.262;2023-09-30T03:35:11;99471.63;;;16.84;77.21
7760;BME280;3924;48.830;9.262;2023-09-30T03:37:45;99482.59;;;16.84;77.34
7760;BME280;3924;48.830;9.262;2023-09-30T03:40:13;99490.16;;;16.87;77.37
7760;BME280;3924;48.830;9.262;2023-09-30T03:42:47;99473.75;;;16.87;77.46
7760;BME280;3924;48.830;9.262;2023-09-30T03:45:17;99463.78;;;16.91;77.27
7760;BME280;3924;48.830;9.262;2023-09-30T03:47:46;99450.91;;;16.91;77.40
7760;BME280;3924;48.830;9.262;2023-09-30T03:50:15;99452.50;;;16.92;77.41
7760;BME280;3924;48.830;9.262;2023-09-30T03:52:43;99448.16;;;16.91;77.49
7760;BME280;3924;48.830;9.262;2023-09-30T03:55:17;99443.00;;;16.90;77.57
7760;BME280;3924;48.830;9.262;2023-09-30T03:57:47;99429.63;;;16.88;77.39
7760;BME280;3924;48.830;9.262;2023-09-30T04:00:16;99424.94;;;16.89;77.45
7760;BME280;3924;48.830;9.262;2023-09-30T04:02:48;99438.13;;;16.87;77.41
7760;BME280;3924;48.830;9.262;2023-09-30T04:05:18;99441.38;;;16.89;77.46
7760;BME280;3924;48.830;9.262;2023-09-30T04:07:45;99440.25;;;16.90;77.63
7760;BME280;3924;48.830;9.262;2023-09-30T04:10:13;99452.34;;;16.89;77.55
7760;BME280;3924;48.830;9.262;2023-09-30T04:12:43;99452.94;;;16.86;77.76
7760;BME280;3924;48.830;9.262;2023-09-30T04:15:10;99462.72;;;16.78;77.53
7760;BME280;3924;48.830;9.262;2023-09-30T04:17:39;99455.44;;;16.74;77.67
7760;BME280;3924;48.830;9.262;2023-09-30T04:20:07;99456.25;;;16.74;77.81
7760;BME280;3924;48.830;9.262;2023-09-30T04:22:37;99459.28;;;16.73;77.78
7760;BME280;3924;48.830;9.262;2023-09-30T04:25:04;99454.22;;;16.66;77.89
7760;BME280;3924;48.830;9.262;2023-09-30T04:27:37;99449.56;;;16.66;78.12
7760;BME280;3924;48.830;9.262;2023-09-30T04:30:04;99455.03;;;16.66;77.85
7760;BME280;3924;48.830;9.262;2023-09-30T04:32:38;99451.63;;;16.61;77.84
7760;BME280;3924;48.830;9.262;2023-09-30T04:35:05;99452.44;;;16.61;77.94
7760;BME280;3924;48.830;9.262;2023-09-30T04:37:35;99461.13;;;16.63;77.88
7760;BME280;3924;48.830;9.262;2023-09-30T04:40:04;99456.97;;;16.66;78.00
7760;BME280;3924;48.830;9.262;2023-09-30T04:42:53;99469.84;;;16.65;77.96
7760;BME280;3924;48.830;9.262;2023-09-30T04:45:25;99480.19;;;16.68;78.00
7760;BME280;3924;48.830;9.262;2023-09-30T04:47:53;99480.19;;;16.68;77.85
7760;BME280;3924;48.830;9.262;2023-09-30T04:50:23;99477.97;;;16.71;78.00
7760;BME280;3924;48.830;9.262;2023-09-30T04:52:53;99470.88;;;16.70;78.10
7760;BME280;3924;48.830;9.262;2023-09-30T04:55:20;99480.41;;;16.72;77.90
7760;BME280;3924;48.830;9.262;2023-09-30T04:57:47;99496.03;;;16.72;78.01
7760;BME280;3924;48.830;9.262;2023-09-30T05:00:17;99495.13;;;16.62;78.10
7760;BME280;3924;48.830;9.262;2023-09-30T05:02:47;99493.63;;;16.56;78.25
7760;BME280;3924;48.830;9.262;2023-09-30T05:05:14;99503.56;;;16.52;78.22
7760;BME280;3924;48.830;9.262;2023-09-30T05:07:42;99513.69;;;16.52;78.44
7760;BME280;3924;48.830;9.262;2023-09-30T05:10:10;99510.63;;;16.53;78.51
7760;BME280;3924;48.830;9.262;2023-09-30T05:12:43;99507.78;;;16.58;78.70
7760;BME280;3924;48.830;9.262;2023-09-30T05:15:15;99507.19;;;16.61;78.28
7760;BME280;3924;48.830;9.262;2023-09-30T05:17:43;99503.94;;;16.59;78.58
7760;BME280;3924;48.830;9.262;2023-09-30T05:20:16;99512.16;;;16.59;78.48
7760;BME280;3924;48.830;9.262;2023-09-30T05:22:46;99512.78;;;16.56;78.64
7760;BME280;3924;48.830;9.262;2023-09-30T05:25:14;99513.38;;;16.53;78.57
7760;BME280;3924;48.830;9.262;2023-09-30T05:27:46;99496.78;;;16.50;78.75
7760;BME280;3924;48.830;9.262;2023-09-30T05:30:16;99504.19;;;16.49;78.78
7760;BME280;3924;48.830;9.262;2023-09-30T05:32:45;99509.66;;;16.49;78.67
7760;BME280;3924;48.830;9.262;2023-09-30T05:35:14;99498.72;;;16.49;78.80
7760;BME280;3924;48.830;9.262;2023-09-30T05:37:44;99496.47;;;16.51;78.84
7760;BME280;3924;48.830;9.262;2023-09-30T05:40:11;99488.75;;;16.53;78.80
7760;BME280;3924;48.830;9.262;2023-09-30T05:42:50;99496.94;;;16.53;78.67
7760;BME280;3924;48.830;9.262;2023-09-30T05:45:17;99492.00;;;16.55;78.54
7760;BME280;3924;48.830;9.262;2023-09-30T05:47:47;99493.63;;;16.56;78.67
7760;BME280;3924;48.830;9.262;2023-09-30T05:50:18;99492.50;;;16.57;78.82
7760;BME280;3924;48.830;9.262;2023-09-30T05:52:51;99507.00;;;16.58;78.56
7760;BME280;3924;48.830;9.262;2023-09-30T05:55:18;99501.63;;;16.53;78.75
7760;BME280;3924;48.830;9.262;2023-09-30T05:57:49;99512.47;;;16.58;78.84
7760;BME280;3924;48.830;9.262;2023-09-30T06:00:19;99517.03;;;16.62;78.62
7760;BME280;3924;48.830;9.262;2023-09-30T06:03:04;99515.78;;;16.68;78.58
7760;BME280;3924;48.830;9.262;2023-09-30T06:05:33;99511.84;;;16.75;78.62
7760;BME280;3924;48.830;9.262;2023-09-30T06:08:03;99520.31;;;16.87;78.20
7760;BME280;3924;48.830;9.262;2023-09-30T06:10:31;99525.19;;;16.90;78.33
7760;BME280;3924;48.830;9.262;2023-09-30T06:12:57;99528.09;;;16.93;78.29
7760;BME280;3924;48.830;9.262;2023-09-30T06:15:25;99541.69;;;16.99;78.26
7760;BME280;3924;48.830;9.262;2023-09-30T06:17:56;99547.84;;;17.04;78.06
7760;BME280;3924;48.830;9.262;2023-09-30T06:20:24;99555.94;;;17.09;77.84
7760;BME280;3924;48.830;9.262;2023-09-30T06:22:54;99556.94;;;17.13;77.92
7760;BME280;3924;48.830;9.262;2023-09-30T06:25:25;99550.66;;;17.13;77.96
7760;BME280;3924;48.830;9.262;2023-09-30T06:27:54;99553.31;;;17.04;77.81
7760;BME280;3924;48.830;9.262;2023-09-30T06:30:21;99547.34;;;17.02;77.92
7760;BME280;3924;48.830;9.262;2023-09-30T06:32:48;99549.47;;;17.05;77.73
7760;BME280;3924;48.830;9.262;2023-09-30T06:35:16;99557.19;;;17.03;77.75
7760;BME280;3924;48.830;9.262;2023-09-30T06:37:44;99558.91;;;16.99;77.89
7760;BME280;3924;48.830;9.262;2023-09-30T06:40:12;99551.50;;;17.00;78.18
7760;BME280;3924;48.830;9.262;2023-09-30T06:42:39;99548.44;;;17.01;77.89
7760;BME280;3924;48.830;9.262;2023-09-30T06:45:07;99556.38;;;17.03;77.93
7760;BME280;3924;48.830;9.262;2023-09-30T06:47:38;99560.22;;;17.02;77.79
7760;BME280;3924;48.830;9.262;2023-09-30T06:50:13;99564.66;;;17.11;77.74
7760;BME280;3924;48.830;9.262;2023-09-30T06:52:44;99567.28;;;17.16;77.65
7760;BME280;3924;48.830;9.262;2023-09-30T06:55:16;99575.25;;;17.27;77.57
7760;BME280;3924;48.830;9.262;2023-09-30T06:57:44;99586.69;;;17.29;77.46
7760;BME280;3924;48.830;9.262;2023-09-30T07:00:13;99592.31;;;17.23;77.26
7760;BME280;3924;48.830;9.262;2023-09-30T07:02:40;99580.47;;;17.14;77.57
7760;BME280;3924;48.830;9.262;2023-09-30T07:05:12;99583.53;;;17.13;77.58
7760;BME280;3924;48.830;9.262;2023-09-30T07:07:39;99572.19;;;17.06;77.59
7760;BME280;3924;48.830;9.262;2023-09-30T07:10:07;99568.00;;;17.08;77.78
7760;BME280;3924;48.830;9.262;2023-09-30T07:12:34;99577.25;;;17.12;77.64
7760;BME280;3924;48.830;9.262;2023-09-30T07:15:04;99574.81;;;17.11;77.66
7760;BME280;3924;48.830;9.262;2023-09-30T07:17:32;99574.00;;;17.10;77.85
7760;BME280;3924;48.830;9.262;2023-09-30T07:19:59;99572.78;;;17.16;77.50
7760;BME280;3924;48.830;9.262;2023-09-30T07:22:26;99572.13;;;17.19;77.50
7760;BME280;3924;48.830;9.262;2023-09-30T07:25:11;99575.44;;;17.30;77.58
7760;BME280;3924;48.830;9.262;2023-09-30T07:27:40;99578.34;;;17.34;77.28
7760;BME280;3924;48.830;9.262;2023-09-30T07:30:07;99586.47;;;17.39;77.11
7760;BME280;3924;48.830;9.262;2023-09-30T07:32:34;99596.69;;;17.47;77.32
7760;BME280;3924;48.830;9.262;2023-09-30T07:35:01;99599.72;;;17.45;76.66
7760;BME280;3924;48.830;9.262;2023-09-30T07:37:27;99610.66;;;17.37;77.24
7760;BME280;3924;48.830;9.262;2023-09-30T07:39:55;99593.81;;;17.30;77.22
7760;BME280;3924;48.830;9.262;2023-09-30T07:42:22;99596.41;;;17.35;77.22
7760;BME280;3924;48.830;9.262;2023-09-30T07:44:49;99586.59;;;17.34;77.10
7760;BME280;3924;48.830;9.262;2023-09-30T07:47:16;99593.81;;;17.30;77.30
7760;BME280;3924;48.830;9.262;2023-09-30T07:49:44;99591.38;;;17.28;77.25
7760;BME280;3924;48.830;9.262;2023-09-30T07:52:10;99602.53;;;17.32;77.31
7760;BME280;3924;48.830;9.262;2023-09-30T07:54:37;99603.88;;;17.43;76.84
7760;BME280;3924;48.830;9.262;2023-09-30T07:57:07;99618.81;;;17.50;76.67
7760;BME280;3924;48.830;9.262;2023-09-30T07:59:34;99630.38;;;17.47;76.59
7760;BME280;3924;48.830;9.262;2023-09-30T08:02:01;99627.09;;;17.59;76.61
7760;BME280;3924;48.830;9.262;2023-09-30T08:04:31;99613.75;;;17.66;76.28
7760;BME280;3924;48.830;9.262;2023-09-30T08:06:58;99611.56;;;17.77;76.46
7760;BME280;3924;48.830;9.262;2023-09-30T08:09:25;99608.94;;;17.94;76.03
7760;BME280;3924;48.830;9.262;2023-09-30T08:11:54;99608.19;;;18.11;75.68
7760;BME280;3924;48.830;9.262;2023-09-30T08:14:20;99604.50;;;18.16;75.42
7760;BME280;3924;48.830;9.262;2023-09-30T08:16:47;99598.91;;;18.29;75.34
7760;BME280;3924;48.830;9.262;2023-09-30T08:19:15;99601.53;;;18.43;74.91
7760;BME280;3924;48.830;9.262;2023-09-30T08:21:42;99603.94;;;18.45;74.82
7760;BME280;3924;48.830;9.262;2023-09-30T08:24:09;99599.91;;;18.51;74.69
7760;BME280;3924;48.830;9.262;2023-09-30T08:26:35;99609.28;;;18.50;74.74
7760;BME280;3924;48.830;9.262;2023-09-30T08:29:02;99612.38;;;18.57;74.53
7760;BME280;3924;48.830;9.262;2023-09-30T08:31:29;99601.25;;;18.62;74.28
7760;BME280;3924;48.830;9.262;2023-09-30T08:33:56;99602.59;;;18.73;74.08
7760;BME280;3924;48.830;9.262;2023-09-30T08:36:23;99598.72;;;18.74;73.73
7760;BME280;3924;48.830;9.262;2023-09-30T08:38:52;99603.00;;;18.58;74.25
7760;BME280;3924;48.830;9.262;2023-09-30T08:41:45;99612.84;;;18.42;74.38
7760;BME280;3924;48.830;9.262;2023-09-30T08:44:13;99597.19;;;18.51;74.36
7760;BME280;3924;48.830;9.262;2023-09-30T08:46:40;99583.00;;;18.66;74.04
7760;BME280;3924;48.830;9.262;2023-09-30T08:49:08;99583.84;;;18.75;73.61
7760;BME280;3924;48.830;9.262;2023-09-30T08:51:35;99593.91;;;18.89;73.37
7760;BME280;3924;48.830;9.262;2023-09-30T08:54:03;99602.94;;;18.80;73.69
7760;BME280;3924;48.830;9.262;2023-09-30T08:56:31;99598.88;;;18.78;73.17
7760;BME280;3924;48.830;9.262;2023-09-30T08:59:03;99593.25;;;18.92;73.24
7760;BME280;3924;48.830;9.262;2023-09-30T09:01:31;99604.56;;;19.16;72.71
7760;BME280;3924;48.830;9.262;2023-09-30T09:03:58;99587.25;;;19.33;72.20
7760;BME280;3924;48.830;9.262;2023-09-30T09:06:26;99582.38;;;19.47;71.82
7760;BME280;3924;48.830;9.262;2023-09-30T09:08:53;99578.19;;;19.50;71.66
7760;BME280;3924;48.830;9.262;2023-09-30T09:11:23;99583.50;;;19.55;71.54
7760;BME280;3924;48.830;9.262;2023-09-30T09:13:52;99590.31;;;19.66;71.23
7760;BME280;3924;48.830;9.262;2023-09-30T09:16:24;99602.25;;;19.79;70.72
7760;BME280;3924;48.830;9.262;2023-09-30T09:18:52;99606.41;;;19.93;70.54
7760;BME280;3924;48.830;9.262;2023-09-30T09:21:21;99603.63;;;20.02;70.16
7760;BME280;3924;48.830;9.262;2023-09-30T09:23:53;99597.31;;;20.02;69.95
7760;BME280;3924;48.830;9.262;2023-09-30T09:26:28;99600.47;;;20.21;69.74
7760;BME280;3924;48.830;9.262;2023-09-30T09:29:01;99601.47;;;20.16;69.67
7760;BME280;3924;48.830;9.262;2023-09-30T09:31:31;99605.81;;;20.26;69.43
7760;BME280;3924;48.830;9.262;2023-09-30T09:33:59;99607.44;;;20.57;68.60
7760;BME280;3924;48.830;9.262;2023-09-30T09:36:41;99602.84;;;20.40;68.80
7760;BME280;3924;48.830;9.262;2023-09-30T09:39:09;99595.84;;;20.42;68.60
7760;BME280;3924;48.830;9.262;2023-09-30T09:41:49;99588.69;;;20.80;68.14
7760;BME280;3924;48.830;9.262;2023-09-30T09:44:19;99590.31;;;21.01;67.33
7760;BME280;3924;48.830;9.262;2023-09-30T09:46:48;99582.69;;;20.98;67.08
7760;BME280;3924;48.830;9.262;2023-09-30T09:49:19;99591.31;;;20.46;68.01
7760;BME280;3924;48.830;9.262;2023-09-30T09:51:47;99579.25;;;19.83;68.96
7760;BME280;3924;48.830;9.262;2023-09-30T09:54:15;99585.16;;;19.38;70.03
7760;BME280;3924;48.830;9.262;2023-09-30T09:56:44;99588.69;;;19.39;70.44
7760;BME280;3924;48.830;9.262;2023-09-30T09:59:12;99595.78;;;19.83;69.10
7760;BME280;3924;48.830;9.262;2023-09-30T10:01:41;99590.59;;;19.73;69.02
7760;BME280;3924;48.830;9.262;2023-09-30T10:04:11;99584.81;;;19.66;69.53
7760;BME280;3924;48.830;9.262;2023-09-30T10:06:44;99583.81;;;19.62;69.37
7760;BME280;3924;48.830;9.262;2023-09-30T10:09:15;99582.06;;;19.57;69.36
7760;BME280;3924;48.830;9.262;2023-09-30T10:11:45;99579.59;;;19.73;68.97
7760;BME280;3924;48.830;9.262;2023-09-30T10:14:32;99570.81;;;20.27;67.68
7760;BME280;3924;48.830;9.262;2023-09-30T10:17:05;99568.25;;;20.21;67.64
7760;BME280;3924;48.830;9.262;2023-09-30T10:19:32;99571.34;;;20.20;67.64
7760;BME280;3924;48.830;9.262;2023-09-30T10:24:53;99561.38;;;21.08;65.69
7760;BME280;3924;48.830;9.262;2023-09-30T10:35:41;99554.81;;;22.24;62.75
7760;BME280;3924;48.830;9.262;2023-09-30T10:40:55;99555.06;;;22.71;61.24
7760;BME280;3924;48.830;9.262;2023-09-30T10:43:29;99554.84;;;22.88;60.85
7760;BME280;3924;48.830;9.262;2023-09-30T10:46:00;99550.09;;;23.01;60.49
7760;BME280;3924;48.830;9.262;2023-09-30T10:51:13;99540.63;;;23.02;59.89
7760;BME280;3924;48.830;9.262;2023-09-30T10:53:43;99539.06;;;22.89;60.12
7760;BME280;3924;48.830;9.262;2023-09-30T10:56:10;99537.59;;;22.67;60.20
7760;BME280;3924;48.830;9.262;2023-09-30T10:58:45;99539.13;;;22.40;60.81
7760;BME280;3924;48.830;9.262;2023-09-30T11:01:13;99535.47;;;22.11;61.19
7760;BME280;3924;48.830;9.262;2023-09-30T11:03:50;99536.97;;;21.51;62.28
7760;BME280;3924;48.830;9.262;2023-09-30T11:06:20;99542.94;;;21.41;62.10
7760;BME280;3924;48.830;9.262;2023-09-30T11:08:56;99535.16;;;21.68;61.50
7760;BME280;3924;48.830;9.262;2023-09-30T11:11:43;99522.47;;;22.12;60.43
7760;BME280;3924;48.830;9.262;2023-09-30T11:16:54;99512.97;;;23.02;58.15
7760;BME280;3924;48.830;9.262;2023-09-30T11:19:22;99510.59;;;23.16;57.82
7760;BME280;3924;48.830;9.262;2023-09-30T11:21:51;99507.94;;;22.80;58.40
7760;BME280;3924;48.830;9.262;2023-09-30T11:24:19;99506.09;;;22.31;59.25
7760;BME280;3924;48.830;9.262;2023-09-30T11:26:52;99506.19;;;21.98;59.68
7760;BME280;3924;48.830;9.262;2023-09-30T11:29:20;99503.44;;;21.86;60.04
7760;BME280;3924;48.830;9.262;2023-09-30T11:31:50;99504.34;;;21.78;59.94
7760;BME280;3924;48.830;9.262;2023-09-30T11:34:31;99503.66;;;21.69;59.88
7760;BME280;3924;48.830;9.262;2023-09-30T11:37:01;99502.38;;;22.03;59.02
7760;BME280;3924;48.830;9.262;2023-09-30T11:39:29;99512.28;;;22.41;58.20
7760;BME280;3924;48.830;9.262;2023-09-30T11:41:57;99515.13;;;22.56;57.60
7760;BME280;3924;48.830;9.262;2023-09-30T11:44:26;99509.34;;;22.74;56.98
7760;BME280;3924;48.830;9.262;2023-09-30T11:46:57;99501.41;;;22.72;56.88
7760;BME280;3924;48.830;9.262;2023-09-30T11:49:34;99510.44;;;22.85;56.48
7760;BME280;3924;48.830;9.262;2023-09-30T11:52:04;99498.34;;;23.02;55.83
7760;BME280;3924;48.830;9.262;2023-09-30T11:54:37;99490.91;;;23.34;54.97
7760;BME280;3924;48.830;9.262;2023-09-30T11:57:12;99492.84;;;23.61;54.55
7760;BME280;3924;48.830;9.262;2023-09-30T11:59:43;99501.19;;;23.49;54.52
7760;BME280;3924;48.830;9.262;2023-09-30T12:02:15;99503.72;;;23.54;54.48
7760;BME280;3924;48.830;9.262;2023-09-30T12:04:45;99513.84;;;23.62;53.94
7760;BME280;3924;48.830;9.262;2023-09-30T12:07:14;99507.34;;;23.42;54.21
7760;BME280;3924;48.830;9.262;2023-09-30T12:09:41;99512.63;;;23.19;54.67
7760;BME280;3924;48.830;9.262;2023-09-30T12:12:09;99515.00;;;23.05;54.77
7760;BME280;3924;48.830;9.262;2023-09-30T12:14:39;99513.88;;;22.66;55.63
7760;BME280;3924;48.830;9.262;2023-09-30T12:17:07;99507.66;;;22.57;55.50
7760;BME280;3924;48.830;9.262;2023-09-30T12:19:40;99511.94;;;22.54;55.62
7760;BME280;3924;48.830;9.262;2023-09-30T12:22:08;99510.56;;;23.01;54.51
7760;BME280;3924;48.830;9.262;2023-09-30T12:24:36;99496.78;;;23.32;53.93
7760;BME280;3924;48.830;9.262;2023-09-30T12:27:03;99501.84;;;23.14;53.80
7760;BME280;3924;48.830;9.262;2023-09-30T12:29:31;99497.13;;;23.15;53.74
7760;BME280;3924;48.830;9.262;2023-09-30T12:31:58;99493.28;;;23.19;53.28
7760;BME280;3924;48.830;9.262;2023-09-30T12:34:26;99486.41;;;23.13;53.63
7760;BME280;3924;48.830;9.262;2023-09-30T12:36:54;99495.53;;;23.30;53.31
7760;BME280;3924;48.830;9.262;2023-09-30T12:39:24;99489.41;;;23.52;52.72
7760;BME280;3924;48.830;9.262;2023-09-30T12:41:53;99492.56;;;23.66;52.50
7760;BME280;3924;48.830;9.262;2023-09-30T12:44:20;99491.13;;;23.72;52.04
7760;BME280;3924;48.830;9.262;2023-09-30T12:46:48;99479.25;;;23.88;51.67
7760;BME280;3924;48.830;9.262;2023-09-30T12:49:14;99485.97;;;23.71;51.84
7760;BME280;3924;48.830;9.262;2023-09-30T12:51:41;99478.69;;;23.35;52.49
7760;BME280;3924;48.830;9.262;2023-09-30T12:54:10;99493.19;;;22.88;53.60
7760;BME280;3924;48.830;9.262;2023-09-30T12:56:39;99486.47;;;22.49;53.74
7760;BME280;3924;48.830;9.262;2023-09-30T12:59:06;99488.94;;;22.26;54.59
7760;BME280;3924;48.830;9.262;2023-09-30T13:01:33;99490.13;;;22.13;54.71
7760;BME280;3924;48.830;9.262;2023-09-30T13:04:02;99488.69;;;22.06;54.73
7760;BME280;3924;48.830;9.262;2023-09-30T13:06:29;99494.81;;;22.00;54.50
7760;BME280;3924;48.830;9.262;2023-09-30T13:08:59;99489.84;;;22.30;54.31
7760;BME280;3924;48.830;9.262;2023-09-30T13:11:26;99481.94;;;22.69;53.25
7760;BME280;3924;48.830;9.262;2023-09-30T13:13:53;99488.78;;;22.99;52.64
7760;BME280;3924;48.830;9.262;2023-09-30T13:16:20;99469.88;;;23.01;52.61
7760;BME280;3924;48.830;9.262;2023-09-30T13:18:47;99474.56;;;22.73;53.00
7760;BME280;3924;48.830;9.262;2023-09-30T13:21:14;99467.06;;;22.21;53.75
7760;BME280;3924;48.830;9.262;2023-09-30T13:23:41;99462.00;;;21.98;54.31
7760;BME280;3924;48.830;9.262;2023-09-30T13:26:08;99459.16;;;21.82;54.80
7760;BME280;3924;48.830;9.262;2023-09-30T13:28:37;99456.97;;;21.76;54.78
7760;BME280;3924;48.830;9.262;2023-09-30T13:31:10;99452.81;;;21.70;54.85
7760;BME280;3924;48.830;9.262;2023-09-30T13:33:36;99450.75;;;21.91;54.43
7760;BME280;3924;48.830;9.262;2023-09-30T13:36:08;99448.69;;;22.13;54.07
7760;BME280;3924;48.830;9.262;2023-09-30T13:38:38;99457.44;;;22.55;53.24
7760;BME280;3924;48.830;9.262;2023-09-30T13:41:16;99453.75;;;22.91;52.44
7760;BME280;3924;48.830;9.262;2023-09-30T13:43:42;99458.88;;;23.05;52.20
7760;BME280;3924;48.830;9.262;2023-09-30T13:46:09;99461.22;;;23.18;51.75
7760;BME280;3924;48.830;9.262;2023-09-30T13:48:36;99454.75;;;23.27;51.58
7760;BME280;3924;48.830;9.262;2023-09-30T13:51:07;99458.22;;;23.39;51.37